sensor_id;sensor_type;location;lat;lon;timestamp;pressure;altitude;pressure_sealevel;temperature;humidity
67840;BME280;54636;51.684;5.142;2023-04-06T00:01:30;101836.31;;;2.19;85.46
67840;BME280;54636;51.684;5.142;2023-04-06T00:03:55;101824.13;;;2.11;86.19
67840;BME280;54636;51.684;5.142;2023-04-06T00:06:21;101821.09;;;2.05;86.67
67840;BME280;54636;51.684;5.142;2023-04-06T00:08:46;101825.34;;;2.03;87.01
67840;BME280;54636;51.684;5.142;2023-04-06T00:11:12;101820.78;;;1.99;87.36
67840;BME280;54636;51.684;5.142;2023-04-06T00:13:38;101809.03;;;1.86;87.73
67840;BME280;54636;51.684;5.142;2023-04-06T00:16:03;101822.41;;;1.90;87.59
67840;BME280;54636;51.684;5.142;2023-04-06T00:18:31;101802.63;;;1.77;87.47
67840;BME280;54636;51.684;5.142;2023-04-06T00:20:56;101822.44;;;1.86;87.39
67840;BME280;54636;51.684;5.142;2023-04-06T00:23:22;101813.28;;;1.84;88.70
67840;BME280;54636;51.684;5.142;2023-04-06T00:25:47;101815.56;;;1.85;88.05
67840;BME280;54636;51.684;5.142;2023-04-06T00:28:12;101796.53;;;1.73;88.65
67840;BME280;54636;51.684;5.142;2023-04-06T00:30:38;101763.44;;;1.45;88.82
67840;BME280;54636;51.684;5.142;2023-04-06T00:33:03;101795.41;;;1.70;89.16
67840;BME280;54636;51.684;5.142;2023-04-06T00:35:29;101796.56;;;1.69;89.27
67840;BME280;54636;51.684;5.142;2023-04-06T00:50:31;101779.38;;;1.63;87.91
67840;BME280;54636;51.684;5.142;2023-04-06T00:52:56;101781.59;;;1.72;87.55
67840;BME280;54636;51.684;5.142;2023-04-06T00:55:22;101792.69;;;1.74;86.88
67840;BME280;54636;51.684;5.142;2023-04-06T00:57:47;101760.66;;;1.59;87.55
67840;BME280;54636;51.684;5.142;2023-04-06T01:00:16;101765.97;;;1.67;87.58
67840;BME280;54636;51.684;5.142;2023-04-06T01:02:42;101771.97;;;1.81;87.39
67840;BME280;54636;51.684;5.142;2023-04-06T01:05:07;101749.09;;;1.70;86.69
67840;BME280;54636;51.684;5.142;2023-04-06T01:07:33;101769.22;;;1.88;86.90
67840;BME280;54636;51.684;5.142;2023-04-06T01:09:58;101760.41;;;1.91;85.95
67840;BME280;54636;51.684;5.142;2023-04-06T01:12:24;101749.69;;;1.91;85.84
67840;BME280;54636;51.684;5.142;2023-04-06T01:14:50;101760.28;;;2.02;86.37
67840;BME280;54636;51.684;5.142;2023-04-06T01:17:16;101759.09;;;2.03;85.88
67840;BME280;54636;51.684;5.142;2023-04-06T01:19:41;101762.91;;;2.06;85.44
67840;BME280;54636;51.684;5.142;2023-04-06T01:22:07;101756.75;;;2.09;86.66
67840;BME280;54636;51.684;5.142;2023-04-06T01:24:32;101754.44;;;2.11;85.70
67840;BME280;54636;51.684;5.142;2023-04-06T01:26:58;101755.53;;;2.17;84.68
67840;BME280;54636;51.684;5.142;2023-04-06T01:29:23;101746.41;;;2.11;86.33
67840;BME280;54636;51.684;5.142;2023-04-06T01:31:49;101745.22;;;2.15;86.34
67840;BME280;54636;51.684;5.142;2023-04-06T01:34:14;101749.03;;;2.14;85.12
67840;BME280;54636;51.684;5.142;2023-04-06T01:36:40;101745.25;;;2.12;85.94
67840;BME280;54636;51.684;5.142;2023-04-06T01:39:05;101738.69;;;2.16;85.87
67840;BME280;54636;51.684;5.142;2023-04-06T01:41:31;101739.09;;;2.15;86.05
67840;BME280;54636;51.684;5.142;2023-04-06T01:43:56;101742.50;;;2.19;84.94
67840;BME280;54636;51.684;5.142;2023-04-06T01:46:22;101740.94;;;2.21;85.11
67840;BME280;54636;51.684;5.142;2023-04-06T01:48:47;101726.38;;;2.22;85.22
67840;BME280;54636;51.684;5.142;2023-04-06T01:51:13;101726.69;;;2.28;84.82
67840;BME280;54636;51.684;5.142;2023-04-06T01:53:38;101728.53;;;2.35;83.95
67840;BME280;54636;51.684;5.142;2023-04-06T01:56:04;101721.97;;;2.39;83.78
67840;BME280;54636;51.684;5.142;2023-04-06T01:58:29;101718.88;;;2.41;83.87
67840;BME280;54636;51.684;5.142;2023-04-06T02:00:55;101723.81;;;2.46;84.61
67840;BME280;54636;51.684;5.142;2023-04-06T02:03:20;101711.88;;;2.50;83.39
67840;BME280;54636;51.684;5.142;2023-04-06T02:05:45;101701.16;;;2.50;82.68
67840;BME280;54636;51.684;5.142;2023-04-06T02:08:11;101695.03;;;2.50;81.92
67840;BME280;54636;51.684;5.142;2023-04-06T02:10:36;101703.59;;;2.68;82.29
67840;BME280;54636;51.684;5.142;2023-04-06T02:13:02;101695.84;;;2.74;81.94
67840;BME280;54636;51.684;5.142;2023-04-06T02:15:27;101696.56;;;2.78;81.08
67840;BME280;54636;51.684;5.142;2023-04-06T02:17:53;101680.09;;;2.76;81.26
67840;BME280;54636;51.684;5.142;2023-04-06T02:20:19;101641.91;;;2.41;80.98
67840;BME280;54636;51.684;5.142;2023-04-06T02:22:44;101688.56;;;2.74;81.68
67840;BME280;54636;51.684;5.142;2023-04-06T02:25:10;101674.78;;;2.72;81.72
67840;BME280;54636;51.684;5.142;2023-04-06T02:27:36;101686.22;;;2.76;81.87
67840;BME280;54636;51.684;5.142;2023-04-06T02:30:02;101692.34;;;2.77;81.86
67840;BME280;54636;51.684;5.142;2023-04-06T02:32:28;101691.19;;;2.78;81.89
67840;BME280;54636;51.684;5.142;2023-04-06T02:34:53;101686.63;;;2.75;82.24
67840;BME280;54636;51.684;5.142;2023-04-06T02:37:19;101685.88;;;2.74;83.40
67840;BME280;54636;51.684;5.142;2023-04-06T02:39:45;101669.88;;;2.67;82.83
67840;BME280;54636;51.684;5.142;2023-04-06T02:42:10;101678.63;;;2.71;83.56
67840;BME280;54636;51.684;5.142;2023-04-06T02:44:36;101662.28;;;2.62;82.74
67840;BME280;54636;51.684;5.142;2023-04-06T02:47:01;101676.00;;;2.68;82.63
67840;BME280;54636;51.684;5.142;2023-04-06T02:49:26;101641.13;;;2.41;82.75
67840;BME280;54636;51.684;5.142;2023-04-06T02:51:52;101667.19;;;2.67;82.61
67840;BME280;54636;51.684;5.142;2023-04-06T02:54:17;101669.88;;;2.67;83.61
67840;BME280;54636;51.684;5.142;2023-04-06T02:56:43;101648.59;;;2.56;84.08
67840;BME280;54636;51.684;5.142;2023-04-06T02:59:08;101659.19;;;2.63;83.78
67840;BME280;54636;51.684;5.142;2023-04-06T03:01:34;101656.09;;;2.65;83.90
67840;BME280;54636;51.684;5.142;2023-04-06T03:03:59;101651.94;;;2.60;84.35
67840;BME280;54636;51.684;5.142;2023-04-06T03:06:25;101650.03;;;2.61;84.53
67840;BME280;54636;51.684;5.142;2023-04-06T03:08:51;101639.13;;;2.48;85.67
67840;BME280;54636;51.684;5.142;2023-04-06T03:11:16;101642.91;;;2.51;84.79
67840;BME280;54636;51.684;5.142;2023-04-06T03:13:42;101657.75;;;2.59;84.92
67840;BME280;54636;51.684;5.142;2023-04-06T03:16:07;101640.63;;;2.49;85.61
67840;BME280;54636;51.684;5.142;2023-04-06T03:18:33;101660.84;;;2.57;85.20
67840;BME280;54636;51.684;5.142;2023-04-06T03:20:58;101648.63;;;2.53;84.60
67840;BME280;54636;51.684;5.142;2023-04-06T03:23:25;101636.50;;;2.45;85.28
67840;BME280;54636;51.684;5.142;2023-04-06T03:25:51;101642.91;;;2.51;84.64
67840;BME280;54636;51.684;5.142;2023-04-06T03:28:16;101642.16;;;2.50;85.09
67840;BME280;54636;51.684;5.142;2023-04-06T03:30:41;101634.59;;;2.42;84.21
67840;BME280;54636;51.684;5.142;2023-04-06T03:33:07;101643.69;;;2.51;85.07
67840;BME280;54636;51.684;5.142;2023-04-06T03:35:32;101642.56;;;2.49;84.87
67840;BME280;54636;51.684;5.142;2023-04-06T03:37:58;101642.56;;;2.49;85.77
67840;BME280;54636;51.684;5.142;2023-04-06T03:40:24;101639.16;;;2.45;85.78
67840;BME280;54636;51.684;5.142;2023-04-06T03:42:50;101638.75;;;2.46;85.85
67840;BME280;54636;51.684;5.142;2023-04-06T03:45:16;101609.38;;;2.39;84.87
67840;BME280;54636;51.684;5.142;2023-04-06T03:47:41;101630.28;;;2.51;85.18
67840;BME280;54636;51.684;5.142;2023-04-06T03:50:07;101636.00;;;2.53;86.17
67840;BME280;54636;51.684;5.142;2023-04-06T03:52:32;101629.00;;;2.59;85.48
67840;BME280;54636;51.684;5.142;2023-04-06T03:54:58;101606.53;;;2.50;85.65
67840;BME280;54636;51.684;5.142;2023-04-06T03:57:23;101626.25;;;2.63;84.67
67840;BME280;54636;51.684;5.142;2023-04-06T03:59:48;101622.81;;;2.62;85.04
67840;BME280;54636;51.684;5.142;2023-04-06T04:02:14;101618.16;;;2.67;84.80
67840;BME280;54636;51.684;5.142;2023-04-06T04:04:39;101613.19;;;2.65;82.99
67840;BME280;54636;51.684;5.142;2023-04-06T04:07:05;101616.88;;;2.75;83.17
67840;BME280;54636;51.684;5.142;2023-04-06T04:09:30;101626.34;;;2.83;82.94
67840;BME280;54636;51.684;5.142;2023-04-06T04:11:56;101622.09;;;2.85;84.06
67840;BME280;54636;51.684;5.142;2023-04-06T04:14:21;101602.19;;;2.83;83.62
67840;BME280;54636;51.684;5.142;2023-04-06T04:16:47;101616.63;;;2.92;81.46
67840;BME280;54636;51.684;5.142;2023-04-06T04:19:12;101599.50;;;2.83;82.55
67840;BME280;54636;51.684;5.142;2023-04-06T04:21:45;101610.44;;;2.95;81.81
67840;BME280;54636;51.684;5.142;2023-04-06T04:24:11;101615.38;;;2.97;82.37
67840;BME280;54636;51.684;5.142;2023-04-06T04:26:38;101614.16;;;3.02;81.67
67840;BME280;54636;51.684;5.142;2023-04-06T04:29:04;101611.50;;;3.02;82.34
67840;BME280;54636;51.684;5.142;2023-04-06T04:31:30;101590.59;;;2.89;83.67
67840;BME280;54636;51.684;5.142;2023-04-06T04:33:55;101612.66;;;3.01;82.88
67840;BME280;54636;51.684;5.142;2023-04-06T04:36:21;101611.50;;;3.02;83.12
67840;BME280;54636;51.684;5.142;2023-04-06T04:38:46;101607.28;;;3.01;82.62
67840;BME280;54636;51.684;5.142;2023-04-06T04:41:12;101599.22;;;3.01;82.82
67840;BME280;54636;51.684;5.142;2023-04-06T04:43:37;101604.13;;;3.06;82.14
67840;BME280;54636;51.684;5.142;2023-04-06T04:46:04;101596.25;;;2.95;83.30
67840;BME280;54636;51.684;5.142;2023-04-06T04:48:29;101590.13;;;2.94;82.23
67840;BME280;54636;51.684;5.142;2023-04-06T04:50:55;101605.31;;;3.05;82.14
67840;BME280;54636;51.684;5.142;2023-04-06T04:53:20;101590.84;;;2.98;82.19
67840;BME280;54636;51.684;5.142;2023-04-06T04:55:46;101601.41;;;3.09;82.27
67840;BME280;54636;51.684;5.142;2023-04-06T04:58:11;101601.00;;;3.11;83.32
67840;BME280;54636;51.684;5.142;2023-04-06T05:00:41;101593.28;;;3.13;82.07
67840;BME280;54636;51.684;5.142;2023-04-06T05:03:07;101584.25;;;3.03;81.54
67840;BME280;54636;51.684;5.142;2023-04-06T05:05:33;101601.56;;;3.22;81.94
67840;BME280;54636;51.684;5.142;2023-04-06T05:07:58;101603.09;;;3.23;81.99
67840;BME280;54636;51.684;5.142;2023-04-06T05:10:24;101606.53;;;3.23;82.15
67840;BME280;54636;51.684;5.142;2023-04-06T05:12:49;101599.28;;;3.20;82.15
67840;BME280;54636;51.684;5.142;2023-04-06T05:15:15;101588.72;;;3.10;82.04
67840;BME280;54636;51.684;5.142;2023-04-06T05:17:40;101609.22;;;3.23;81.65
67840;BME280;54636;51.684;5.142;2023-04-06T05:20:06;101607.28;;;3.24;81.84
67840;BME280;54636;51.684;5.142;2023-04-06T05:22:32;101620.22;;;3.29;82.01
67840;BME280;54636;51.684;5.142;2023-04-06T05:24:57;101600.31;;;3.26;81.08
67840;BME280;54636;51.684;5.142;2023-04-06T05:27:23;101610.53;;;3.35;81.77
67840;BME280;54636;51.684;5.142;2023-04-06T05:29:48;101610.53;;;3.35;82.55
67840;BME280;54636;51.684;5.142;2023-04-06T05:32:17;101616.25;;;3.37;82.61
67840;BME280;54636;51.684;5.142;2023-04-06T05:34:48;101611.91;;;3.43;82.26
67840;BME280;54636;51.684;5.142;2023-04-06T05:37:13;101595.84;;;3.40;82.33
67840;BME280;54636;51.684;5.142;2023-04-06T05:39:39;101607.09;;;3.54;82.10
67840;BME280;54636;51.684;5.142;2023-04-06T05:42:05;101616.56;;;3.62;82.66
67840;BME280;54636;51.684;5.142;2023-04-06T05:44:31;101612.16;;;3.72;81.98
67840;BME280;54636;51.684;5.142;2023-04-06T05:46:57;101608.16;;;3.80;81.55
67840;BME280;54636;51.684;5.142;2023-04-06T05:49:22;101597.81;;;3.79;81.00
67840;BME280;54636;51.684;5.142;2023-04-06T05:51:48;101608.69;;;3.91;80.32
67840;BME280;54636;51.684;5.142;2023-04-06T05:54:13;101610.88;;;3.96;80.55
67840;BME280;54636;51.684;5.142;2023-04-06T05:56:39;101612.66;;;4.03;79.79
67840;BME280;54636;51.684;5.142;2023-04-06T05:59:05;101606.88;;;4.05;79.53
67840;BME280;54636;51.684;5.142;2023-04-06T06:01:30;101614.25;;;4.20;80.23
67840;BME280;54636;51.684;5.142;2023-04-06T06:03:55;101597.75;;;4.18;80.54
67840;BME280;54636;51.684;5.142;2023-04-06T06:06:21;101580.88;;;4.18;79.49
67840;BME280;54636;51.684;5.142;2023-04-06T06:08:46;101615.97;;;4.47;78.49
67840;BME280;54636;51.684;5.142;2023-04-06T06:11:12;101614.22;;;4.56;79.36
67840;BME280;54636;51.684;5.142;2023-04-06T06:13:37;101608.81;;;4.56;78.28
67840;BME280;54636;51.684;5.142;2023-04-06T06:16:03;101590.75;;;4.57;79.03
67840;BME280;54636;51.684;5.142;2023-04-06T06:18:30;101575.56;;;4.50;78.53
67840;BME280;54636;51.684;5.142;2023-04-06T06:20:55;101609.53;;;4.77;78.34
67840;BME280;54636;51.684;5.142;2023-04-06T06:23:21;101597.41;;;4.69;78.28
67840;BME280;54636;51.684;5.142;2023-04-06T06:25:46;101586.63;;;4.69;78.90
67840;BME280;54636;51.684;5.142;2023-04-06T06:28:12;101611.63;;;4.85;78.79
67840;BME280;54636;51.684;5.142;2023-04-06T06:30:37;101607.84;;;4.83;78.94
67840;BME280;54636;51.684;5.142;2023-04-06T06:33:02;101609.59;;;4.89;78.67
67840;BME280;54636;51.684;5.142;2023-04-06T06:35:28;101607.34;;;4.88;78.47
67840;BME280;54636;51.684;5.142;2023-04-06T06:37:54;101616.41;;;4.94;78.59
67840;BME280;54636;51.684;5.142;2023-04-06T06:40:19;101597.81;;;4.83;79.11
67840;BME280;54636;51.684;5.142;2023-04-06T06:42:47;101577.97;;;4.77;77.95
67840;BME280;54636;51.684;5.142;2023-04-06T06:45:12;101601.53;;;4.89;77.97
67840;BME280;54636;51.684;5.142;2023-04-06T06:47:37;101616.16;;;5.05;77.84
67840;BME280;54636;51.684;5.142;2023-04-06T06:50:03;101604.97;;;5.06;78.66
67840;BME280;54636;51.684;5.142;2023-04-06T06:52:29;101618.19;;;5.17;78.54
67840;BME280;54636;51.684;5.142;2023-04-06T06:54:55;101609.56;;;5.22;78.43
67840;BME280;54636;51.684;5.142;2023-04-06T06:57:21;101601.38;;;5.25;76.61
67840;BME280;54636;51.684;5.142;2023-04-06T06:59:47;101585.56;;;5.27;77.48
67840;BME280;54636;51.684;5.142;2023-04-06T07:02:12;101592.69;;;5.34;77.00
67840;BME280;54636;51.684;5.142;2023-04-06T07:04:37;101601.59;;;5.47;76.88
67840;BME280;54636;51.684;5.142;2023-04-06T07:07:03;101600.31;;;5.52;76.53
67840;BME280;54636;51.684;5.142;2023-04-06T07:09:28;101583.72;;;5.53;76.45
67840;BME280;54636;51.684;5.142;2023-04-06T07:11:54;101585.38;;;5.63;76.08
67840;BME280;54636;51.684;5.142;2023-04-06T07:14:21;101572.34;;;5.62;76.57
67840;BME280;54636;51.684;5.142;2023-04-06T07:16:46;101563.72;;;5.67;76.30
67840;BME280;54636;51.684;5.142;2023-04-06T07:19:14;101593.44;;;5.92;76.74
67840;BME280;54636;51.684;5.142;2023-04-06T07:21:39;101587.94;;;5.96;76.36
67840;BME280;54636;51.684;5.142;2023-04-06T07:24:05;101587.75;;;6.03;75.98
67840;BME280;54636;51.684;5.142;2023-04-06T07:26:30;101597.47;;;6.13;76.67
67840;BME280;54636;51.684;5.142;2023-04-06T07:28:55;101590.56;;;6.12;75.33
67840;BME280;54636;51.684;5.142;2023-04-06T07:31:21;101598.78;;;6.21;76.77
67840;BME280;54636;51.684;5.142;2023-04-06T07:33:46;101563.59;;;6.12;76.30
67840;BME280;54636;51.684;5.142;2023-04-06T07:36:12;101581.19;;;6.30;75.38
67840;BME280;54636;51.684;5.142;2023-04-06T07:38:37;101597.81;;;6.41;76.47
67840;BME280;54636;51.684;5.142;2023-04-06T07:41:03;101590.13;;;6.52;76.25
67840;BME280;54636;51.684;5.142;2023-04-06T07:43:29;101588.28;;;6.61;75.59
67840;BME280;54636;51.684;5.142;2023-04-06T07:45:56;101595.63;;;6.74;75.15
67840;BME280;54636;51.684;5.142;2023-04-06T07:48:22;101596.03;;;6.85;73.92
67840;BME280;54636;51.684;5.142;2023-04-06T07:50:48;101575.94;;;6.86;72.89
67840;BME280;54636;51.684;5.142;2023-04-06T07:53:13;101592.75;;;7.03;72.33
67840;BME280;54636;51.684;5.142;2023-04-06T07:55:39;101594.03;;;7.11;73.15
67840;BME280;54636;51.684;5.142;2023-04-06T07:58:04;101592.47;;;7.22;71.64
67840;BME280;54636;51.684;5.142;2023-04-06T08:00:30;101598.81;;;7.28;71.15
67840;BME280;54636;51.684;5.142;2023-04-06T08:02:56;101576.44;;;7.28;71.15
67840;BME280;54636;51.684;5.142;2023-04-06T08:05:21;101587.41;;;7.46;71.25
67840;BME280;54636;51.684;5.142;2023-04-06T08:07:46;101593.44;;;7.72;68.89
67840;BME280;54636;51.684;5.142;2023-04-06T08:10:12;101603.06;;;7.73;69.94
67840;BME280;54636;51.684;5.142;2023-04-06T08:12:37;101593.03;;;7.83;67.68
67840;BME280;54636;51.684;5.142;2023-04-06T08:15:03;101606.28;;;7.90;68.53
67840;BME280;54636;51.684;5.142;2023-04-06T08:17:29;101601.38;;;7.98;68.29
67840;BME280;54636;51.684;5.142;2023-04-06T08:19:56;101603.06;;;8.04;69.06
67840;BME280;54636;51.684;5.142;2023-04-06T08:22:21;101602.06;;;8.11;68.00
67840;BME280;54636;51.684;5.142;2023-04-06T08:24:47;101603.13;;;8.13;68.68
67840;BME280;54636;51.684;5.142;2023-04-06T08:27:12;101604.69;;;8.23;69.01
67840;BME280;54636;51.684;5.142;2023-04-06T08:29:40;101609.81;;;8.31;68.80
67840;BME280;54636;51.684;5.142;2023-04-06T08:32:05;101604.53;;;8.27;68.46
67840;BME280;54636;51.684;5.142;2023-04-06T08:34:32;101608.88;;;8.24;68.62
67840;BME280;54636;51.684;5.142;2023-04-06T08:36:58;101590.66;;;8.16;68.72
67840;BME280;54636;51.684;5.142;2023-04-06T08:39:23;101610.16;;;8.33;69.49
67840;BME280;54636;51.684;5.142;2023-04-06T08:41:52;101616.38;;;8.42;69.51
67840;BME280;54636;51.684;5.142;2023-04-06T08:44:18;101598.75;;;8.47;70.42
67840;BME280;54636;51.684;5.142;2023-04-06T08:46:43;101596.88;;;8.66;69.67
67840;BME280;54636;51.684;5.142;2023-04-06T08:49:09;101608.78;;;8.77;69.46
67840;BME280;54636;51.684;5.142;2023-04-06T08:51:36;101590.28;;;8.76;69.43
67840;BME280;54636;51.684;5.142;2023-04-06T08:54:02;101583.81;;;8.82;69.49
67840;BME280;54636;51.684;5.142;2023-04-06T08:56:28;101605.53;;;9.01;70.94
67840;BME280;54636;51.684;5.142;2023-04-06T08:58:54;101595.44;;;9.01;70.29
67840;BME280;54636;51.684;5.142;2023-04-06T09:01:21;101609.16;;;9.07;72.40
67840;BME280;54636;51.684;5.142;2023-04-06T09:03:49;101618.03;;;9.07;73.70
67840;BME280;54636;51.684;5.142;2023-04-06T09:06:15;101619.06;;;9.01;74.42
67840;BME280;54636;51.684;5.142;2023-04-06T09:08:41;101609.75;;;9.02;76.30
67840;BME280;54636;51.684;5.142;2023-04-06T09:11:07;101618.16;;;9.13;77.22
67840;BME280;54636;51.684;5.142;2023-04-06T09:13:53;101603.41;;;9.05;76.72
67840;BME280;54636;51.684;5.142;2023-04-06T09:16:23;101610.19;;;9.28;77.47
67840;BME280;54636;51.684;5.142;2023-04-06T09:18:49;101622.84;;;9.40;77.80
67840;BME280;54636;51.684;5.142;2023-04-06T09:21:17;101605.22;;;9.44;76.96
67840;BME280;54636;51.684;5.142;2023-04-06T09:23:43;101618.78;;;9.44;77.12
67840;BME280;54636;51.684;5.142;2023-04-06T09:26:09;101614.41;;;9.47;79.09
67840;BME280;54636;51.684;5.142;2023-04-06T09:28:52;101610.50;;;9.66;78.61
67840;BME280;54636;51.684;5.142;2023-04-06T09:31:26;101604.91;;;9.61;79.67
67840;BME280;54636;51.684;5.142;2023-04-06T09:33:52;101610.66;;;9.63;81.15
67840;BME280;54636;51.684;5.142;2023-04-06T09:36:18;101618.34;;;9.55;82.40
67840;BME280;54636;51.684;5.142;2023-04-06T09:38:55;101594.53;;;9.41;81.45
67840;BME280;54636;51.684;5.142;2023-04-06T09:41:25;101595.13;;;9.27;84.93
67840;BME280;54636;51.684;5.142;2023-04-06T09:43:52;101595.13;;;9.17;85.26
67840;BME280;54636;51.684;5.142;2023-04-06T09:46:20;101594.25;;;9.02;84.77
67840;BME280;54636;51.684;5.142;2023-04-06T09:48:47;101600.69;;;8.86;89.26
67840;BME280;54636;51.684;5.142;2023-04-06T09:51:14;101597.34;;;8.73;88.87
67840;BME280;54636;51.684;5.142;2023-04-06T09:53:43;101609.09;;;8.79;91.15
67840;BME280;54636;51.684;5.142;2023-04-06T09:56:12;101596.00;;;8.87;93.49
67840;BME280;54636;51.684;5.142;2023-04-06T09:58:43;101595.41;;;8.83;94.12
67840;BME280;54636;51.684;5.142;2023-04-06T10:01:15;101593.47;;;8.93;94.08
67840;BME280;54636;51.684;5.142;2023-04-06T10:03:52;101590.47;;;9.00;91.97
67840;BME280;54636;51.684;5.142;2023-04-06T10:06:23;101588.38;;;9.04;94.33
67840;BME280;54636;51.684;5.142;2023-04-06T10:08:51;101607.16;;;9.16;94.85
67840;BME280;54636;51.684;5.142;2023-04-06T10:11:19;101593.19;;;9.27;94.53
67840;BME280;54636;51.684;5.142;2023-04-06T10:13:47;101598.28;;;9.25;94.54
67840;BME280;54636;51.684;5.142;2023-04-06T10:16:14;101603.72;;;9.25;94.94
67840;BME280;54636;51.684;5.142;2023-04-06T10:18:44;101607.03;;;9.29;94.64
67840;BME280;54636;51.684;5.142;2023-04-06T10:21:14;101596.78;;;9.24;95.47
67840;BME280;54636;51.684;5.142;2023-04-06T10:23:48;101584.59;;;9.01;95.79
67840;BME280;54636;51.684;5.142;2023-04-06T10:26:16;101599.22;;;9.04;96.75
67840;BME280;54636;51.684;5.142;2023-04-06T10:28:43;101598.00;;;8.96;95.38
67840;BME280;54636;51.684;5.142;2023-04-06T10:31:09;101587.59;;;8.85;96.68
67840;BME280;54636;51.684;5.142;2023-04-06T10:33:34;101596.63;;;8.91;97.23
67840;BME280;54636;51.684;5.142;2023-04-06T10:36:13;101604.31;;;8.93;98.14
67840;BME280;54636;51.684;5.142;2023-04-06T10:38:40;101589.56;;;8.94;98.54
67840;BME280;54636;51.684;5.142;2023-04-06T10:41:08;101601.16;;;8.94;99.36
67840;BME280;54636;51.684;5.142;2023-04-06T10:43:35;101597.41;;;9.10;100.00
67840;BME280;54636;51.684;5.142;2023-04-06T10:46:01;101593.94;;;9.37;98.97
67840;BME280;54636;51.684;5.142;2023-04-06T10:48:41;101596.94;;;9.57;99.38
67840;BME280;54636;51.684;5.142;2023-04-06T10:51:10;101570.41;;;9.61;98.13
67840;BME280;54636;51.684;5.142;2023-04-06T10:53:36;101583.91;;;9.79;95.69
67840;BME280;54636;51.684;5.142;2023-04-06T10:56:02;101574.72;;;9.77;98.03
67840;BME280;54636;51.684;5.142;2023-04-06T10:58:28;101579.09;;;9.83;97.22
67840;BME280;54636;51.684;5.142;2023-04-06T11:00:54;101559.66;;;9.76;97.92
67840;BME280;54636;51.684;5.142;2023-04-06T11:03:20;101577.41;;;9.86;95.41
67840;BME280;54636;51.684;5.142;2023-04-06T11:05:50;101571.25;;;9.76;96.60
67840;BME280;54636;51.684;5.142;2023-04-06T11:10:48;101530.03;;;9.63;96.88
67840;BME280;54636;51.684;5.142;2023-04-06T11:13:14;101560.81;;;9.93;97.01
67840;BME280;54636;51.684;5.142;2023-04-06T11:15:40;101549.34;;;9.98;96.08
67840;BME280;54636;51.684;5.142;2023-04-06T11:18:05;101546.50;;;9.93;96.91
67840;BME280;54636;51.684;5.142;2023-04-06T11:20:31;101549.44;;;10.22;96.35
67840;BME280;54636;51.684;5.142;2023-04-06T11:22:56;101553.63;;;10.32;96.04
67840;BME280;54636;51.684;5.142;2023-04-06T11:25:24;101541.19;;;10.40;97.46
67840;BME280;54636;51.684;5.142;2023-04-06T11:27:51;101521.63;;;10.36;95.04
67840;BME280;54636;51.684;5.142;2023-04-06T11:30:17;101545.19;;;10.54;95.14
67840;BME280;54636;51.684;5.142;2023-04-06T11:32:44;101531.81;;;10.41;96.79
67840;BME280;54636;51.684;5.142;2023-04-06T11:35:25;101532.06;;;10.52;96.86
67840;BME280;54636;51.684;5.142;2023-04-06T11:37:51;101532.47;;;10.60;94.97
67840;BME280;54636;51.684;5.142;2023-04-06T11:40:23;101534.09;;;10.67;93.95
67840;BME280;54636;51.684;5.142;2023-04-06T11:42:53;101527.94;;;10.81;94.26
67840;BME280;54636;51.684;5.142;2023-04-06T11:45:19;101533.50;;;10.86;93.52
67840;BME280;54636;51.684;5.142;2023-04-06T11:47:45;101520.00;;;10.92;93.05
67840;BME280;54636;51.684;5.142;2023-04-06T11:50:11;101522.28;;;10.94;92.49
67840;BME280;54636;51.684;5.142;2023-04-06T11:52:39;101497.41;;;10.86;93.91
67840;BME280;54636;51.684;5.142;2023-04-06T11:55:15;101512.91;;;10.95;92.65
67840;BME280;54636;51.684;5.142;2023-04-06T11:57:42;101512.75;;;10.74;94.98
67840;BME280;54636;51.684;5.142;2023-04-06T12:00:08;101516.91;;;10.61;97.42
67840;BME280;54636;51.684;5.142;2023-04-06T12:02:37;101516.78;;;10.55;94.55
67840;BME280;54636;51.684;5.142;2023-04-06T12:05:04;101506.34;;;10.39;95.39
67840;BME280;54636;51.684;5.142;2023-04-06T12:07:31;101497.28;;;10.09;95.56
67840;BME280;54636;51.684;5.142;2023-04-06T12:09:57;101492.34;;;9.98;96.82
67840;BME280;54636;51.684;5.142;2023-04-06T12:12:23;101511.97;;;9.93;97.92
67840;BME280;54636;51.684;5.142;2023-04-06T12:14:48;101505.63;;;9.96;97.71
67840;BME280;54636;51.684;5.142;2023-04-06T12:17:14;101485.38;;;9.73;99.04
67840;BME280;54636;51.684;5.142;2023-04-06T12:19:39;101502.66;;;9.85;98.13
67840;BME280;54636;51.684;5.142;2023-04-06T12:22:05;101494.38;;;9.79;99.48
67840;BME280;54636;51.684;5.142;2023-04-06T12:24:31;101482.09;;;9.69;98.41
67840;BME280;54636;51.684;5.142;2023-04-06T12:26:56;101499.81;;;9.79;98.98
67840;BME280;54636;51.684;5.142;2023-04-06T12:29:24;101494.22;;;9.83;100.00
67840;BME280;54636;51.684;5.142;2023-04-06T12:31:50;101505.34;;;9.94;98.77
67840;BME280;54636;51.684;5.142;2023-04-06T12:34:16;101494.81;;;9.87;100.00
67840;BME280;54636;51.684;5.142;2023-04-06T12:36:41;101482.38;;;9.71;99.60
67840;BME280;54636;51.684;5.142;2023-04-06T12:39:07;101501.47;;;9.77;100.00
67840;BME280;54636;51.684;5.142;2023-04-06T12:41:33;101455.03;;;9.42;100.00
67840;BME280;54636;51.684;5.142;2023-04-06T12:43:58;101491.91;;;9.57;100.00
67840;BME280;54636;51.684;5.142;2023-04-06T12:46:24;101501.41;;;9.53;100.00
67840;BME280;54636;51.684;5.142;2023-04-06T12:48:51;101502.63;;;9.52;100.00
67840;BME280;54636;51.684;5.142;2023-04-06T12:51:18;101484.88;;;9.42;100.00
67840;BME280;54636;51.684;5.142;2023-04-06T12:53:45;101491.31;;;9.53;100.00
67840;BME280;54636;51.684;5.142;2023-04-06T12:56:15;101478.84;;;9.47;100.00
67840;BME280;54636;51.684;5.142;2023-04-06T12:58:41;101491.34;;;9.44;100.00
67840;BME280;54636;51.684;5.142;2023-04-06T13:01:08;101477.16;;;9.49;100.00
67840;BME280;54636;51.684;5.142;2023-04-06T13:03:33;101478.06;;;9.55;100.00
67840;BME280;54636;51.684;5.142;2023-04-06T13:06:00;101474.47;;;9.40;100.00
67840;BME280;54636;51.684;5.142;2023-04-06T13:08:26;101434.28;;;9.30;100.00
67840;BME280;54636;51.684;5.142;2023-04-06T13:10:52;101467.38;;;9.52;100.00